Laredo, TX (78042)

5:06 AM CDT on July 13, 2014 (GMT -0500)
Del Mar C (KTXLARED6) Elev 489 ft | 27.56 °N, 99.48 °W | Change Station

Current weather conditions updated 22 seconds ago

Clear
Clear
77.2 °F
Feels Like 79 °F
N
4.9
Wind Variable Wind from ESE
Gusts 7.4 mph

Today is forecast to be nearly the same temperature as yesterday.

Today
High -- | Low -- °F
--% Chance of Precip.
Yesterday
High -- | Low -- °F
Precip. -- in
6:51 AM 8:35 PM
Full, 99% visible
Pressure 30.04 in
Visibility 10.0 miles
Clouds Clear
Heat Index 79 °F
Dew Point 72 °F
Humidity 85%
Rainfall 0.00 in
Snow Depth Not available.
UV 0 out of 12
Pollen 3.60 out of 12
Ozone Good
PM2.5 Good
Flu Activity Sporadic
METAR KLRD 130956Z AUTO 12008KT 10SM CLR 26/22 A3007 RMK AO2 T02550222 SLP171

More Conditions Fewer Conditions

Pressure 30.04 in
Visibility 10.0 miles
Clouds Clear
Heat Index 79 °F
Dew Point 72 °F
Humidity 85%
Rainfall 0.00 in
Snow Depth Not available.
UV 0 out of 12
Pollen 3.60 out of 12
Ozone Good
PM2.5 Good
Flu Activity Sporadic
METAR KLRD 130956Z AUTO 12008KT 10SM CLR 26/22 A3007 RMK AO2 T02550222 SLP171

More Conditions Fewer Conditions

10-Day Weather Forecast

Almanac

Astronomy

Jul. 13, 2014 Rise Set
Actual Time 6:51 AM CDT 8:35 PM CDT
Civil Twilight 6:25 AM CDT 9:01 PM CDT
Nautical Twilight 5:54 AM CDT 9:33 PM CDT
Astronomical Twilight 5:20 AM CDT 10:06 PM CDT
Moon 9:40 PM CDT 8:12 AM CDT
Length of Visible Light 14h 36m
Length of Day
13h 44m
Tomorrow will be 0m 45s shorter.
Full, 99% of the Moon is Illuminated
Today
Full
Jul 18
Last Quarter
Jul 26
New
Aug 3
First Quarter
Aug 10
Full

Today's Extremes

State Highs State Lows

Community

WunderPhotos

Upload Photos

1,733,147 photos uploaded!

Nearby

Air Quality

  Air Quality AQ Index Pollutant
Yesterday Moderate
PM2.5
Yesterday Good
OZONE
Current Good
PM2.5
Current Good
OZONE
Sunday Good
PM10
Sunday Good
OZONE
Monday Good
PM10
Monday Good
OZONE
Tuesday Good
PM10
Tuesday Good
OZONE

Snow Depth

Station Depth Elevation
No new snow has been reported.

Earthquake Activity

City Distance Mag. Time & Date
No recent earthquake activity has been reported nearby.
Minimum magnitude displayed is 2.5.

Coastal Water Temperatures

Place Temperature
No Stations Reporting

Nearby Weather Stations

Station Location Temp. Heat Index Dew Point Humidity Wind Precip. Elev Updated Type
Del Mar C, Laredo, TX 77.2 °F 79 °F 72 °F 85% ESE  at  4.9 mph 0.00 in / hr 489 ft 5:05 AM CDT Rapid Fire
Werner Ent. Laredo, Laredo, TX 75.8 °F 76 °F 72 °F 87% ENE  at  7.0 mph 0.00 in / hr 694 ft 5:02 AM CDT Normal
MesoWest CLAGNS , Encinal, TX 79 °F 77 °F - - North  at  - 0.00 in / hr 628 ft 3:30 AM CDT MADIS

Show More Stations Show Fewer Stations